createdAt,value
2023-03-27T00:00:20.545Z,4.21
2023-03-27T00:02:51.646Z,4.21
2023-03-27T00:05:22.569Z,4.20
2023-03-27T00:07:55.572Z,4.18
2023-03-27T00:10:26.690Z,4.16
2023-03-27T00:12:57.066Z,4.13
2023-03-27T00:15:27.373Z,4.11
2023-03-27T00:17:58.711Z,4.10
2023-03-27T00:20:30.048Z,4.09
2023-03-27T00:23:00.780Z,4.08
2023-03-27T00:25:31.698Z,4.05
2023-03-27T00:28:02.667Z,4.02
2023-03-27T00:30:33.625Z,3.98
2023-03-27T00:33:04.743Z,3.94
2023-03-27T00:35:35.095Z,3.91
2023-03-27T00:38:05.440Z,3.87
2023-03-27T00:40:35.771Z,3.83
2023-03-27T00:43:21.498Z,3.80
2023-03-27T00:45:55.770Z,3.76
2023-03-27T00:48:27.108Z,3.73
2023-03-27T00:50:58.348Z,3.68
2023-03-27T00:53:31.044Z,3.62
2023-03-27T00:56:03.885Z,3.56
2023-03-27T00:58:38.515Z,3.47
2023-03-27T01:01:11.810Z,3.39
2023-03-27T01:03:45.325Z,3.32
2023-03-27T01:06:17.518Z,3.22
2023-03-27T01:08:48.607Z,3.15
2023-03-27T01:11:29.563Z,3.09
2023-03-27T01:14:11.941Z,3.03
2023-03-27T01:16:50.296Z,2.95
2023-03-27T01:19:51.916Z,2.89
2023-03-27T01:22:52.585Z,2.81
2023-03-27T01:25:45.718Z,2.76
2023-03-27T01:28:28.957Z,2.70
2023-03-27T01:31:05.109Z,2.65
2023-03-27T01:34:25.423Z,2.61
2023-03-27T01:37:15.131Z,2.54
2023-03-27T01:39:54.777Z,2.49
2023-03-27T01:42:32.605Z,2.45
2023-03-27T01:45:07.398Z,2.42
2023-03-27T01:47:47.477Z,2.40
2023-03-27T01:50:24.622Z,2.37
2023-03-27T01:52:58.156Z,2.34
2023-03-27T01:55:32.328Z,2.29
2023-03-27T01:58:13.842Z,2.24
2023-03-27T02:00:53.251Z,2.19
2023-03-27T02:03:28.584Z,2.13
2023-03-27T02:06:04.269Z,2.10
2023-03-27T02:08:41.212Z,2.06
2023-03-27T02:11:11.711Z,2.03
2023-03-27T02:13:46.375Z,1.99
2023-03-27T02:16:20.530Z,1.96
2023-03-27T02:18:56.669Z,1.93
2023-03-27T02:21:27.878Z,1.89
2023-03-27T02:24:01.933Z,1.86
2023-03-27T02:26:33.446Z,1.83
2023-03-27T02:29:23.873Z,1.81
2023-03-27T02:32:06.521Z,1.79
2023-03-27T02:34:54.206Z,1.76
2023-03-27T02:37:32.180Z,1.73
2023-03-27T02:40:14.917Z,1.71
2023-03-27T02:42:59.591Z,1.68
2023-03-27T02:45:38.346Z,1.66
2023-03-27T02:48:13.180Z,1.63
2023-03-27T02:50:48.051Z,1.60
2023-03-27T02:53:23.704Z,1.59
2023-03-27T02:55:57.659Z,1.58
2023-03-27T02:58:35.225Z,1.56
2023-03-27T03:01:10.630Z,1.54
2023-03-27T03:03:45.500Z,1.53
2023-03-27T03:06:15.978Z,1.54
2023-03-27T03:08:46.748Z,1.56
2023-03-27T03:11:17.390Z,1.60
2023-03-27T03:13:47.688Z,1.66
2023-03-27T03:16:18.047Z,1.70
2023-03-27T03:18:48.352Z,1.75
2023-03-27T03:21:18.684Z,1.80
2023-03-27T03:23:57.541Z,1.84
2023-03-27T03:26:29.959Z,1.88
2023-03-27T03:29:01.722Z,1.89
2023-03-27T03:31:43.264Z,1.89
2023-03-27T03:34:16.503Z,1.88
2023-03-27T03:36:49.538Z,1.86
2023-03-27T03:39:20.433Z,1.84
2023-03-27T03:41:51.204Z,1.81
2023-03-27T03:44:21.570Z,1.80
2023-03-27T03:46:51.936Z,1.77
2023-03-27T03:49:22.298Z,1.74
2023-03-27T03:52:03.586Z,1.70
2023-03-27T03:54:38.484Z,1.66
2023-03-27T03:57:09.196Z,1.63
2023-03-27T03:59:39.763Z,1.57
2023-03-27T04:02:12.176Z,1.52
2023-03-27T04:04:43.777Z,1.48
2023-03-27T04:07:17.771Z,1.46
2023-03-27T04:09:48.124Z,1.46
2023-03-27T04:12:19.216Z,1.45
2023-03-27T04:14:49.879Z,1.45
2023-03-27T04:17:20.634Z,1.44
2023-03-27T04:19:50.961Z,1.41
2023-03-27T04:22:22.724Z,1.42
2023-03-27T04:24:53.635Z,1.42
2023-03-27T04:27:24.106Z,1.45
2023-03-27T04:29:54.367Z,1.50
2023-03-27T04:32:26.379Z,1.54
2023-03-27T04:34:56.699Z,1.57
2023-03-27T04:37:27.827Z,1.60
2023-03-27T04:39:58.567Z,1.61
2023-03-27T04:42:28.862Z,1.62
2023-03-27T04:44:59.209Z,1.62
2023-03-27T04:47:29.518Z,1.61
2023-03-27T04:50:00.817Z,1.59
2023-03-27T04:52:33.446Z,1.56
2023-03-27T04:55:04.730Z,1.54
2023-03-27T04:57:35.507Z,1.51
2023-03-27T05:00:15.943Z,1.46
2023-03-27T05:02:46.763Z,1.44
2023-03-27T05:05:18.381Z,1.41
2023-03-27T05:07:49.891Z,1.38
2023-03-27T05:10:21.814Z,1.36
2023-03-27T05:12:55.210Z,1.33
2023-03-27T05:15:27.776Z,1.30
2023-03-27T05:17:58.117Z,1.28
2023-03-27T05:20:28.930Z,1.24
2023-03-27T05:22:59.512Z,1.22
2023-03-27T05:25:33.163Z,1.20
2023-03-27T05:28:03.771Z,1.18
2023-03-27T05:30:34.453Z,1.16
2023-03-27T05:33:04.822Z,1.17
2023-03-27T05:35:35.180Z,1.17
2023-03-27T05:38:06.528Z,1.18
2023-03-27T05:40:37.739Z,1.19
2023-03-27T05:43:08.658Z,1.21
2023-03-27T05:45:38.952Z,1.24
2023-03-27T05:48:10.618Z,1.28
2023-03-27T05:50:41.610Z,1.38
2023-03-27T05:53:12.359Z,1.48
2023-03-27T05:55:43.173Z,1.57
2023-03-27T05:58:13.778Z,1.64
2023-03-27T06:00:44.688Z,1.71
2023-03-27T06:03:15.831Z,1.77
2023-03-27T06:05:46.489Z,1.80
2023-03-27T06:08:16.955Z,1.82
2023-03-27T06:10:47.636Z,1.81
2023-03-27T06:13:18.418Z,1.79
2023-03-27T06:15:49.519Z,1.75
2023-03-27T06:18:19.896Z,1.71
2023-03-27T06:20:51.909Z,1.69
2023-03-27T06:23:22.585Z,1.66
2023-03-27T06:25:54.276Z,1.66
2023-03-27T06:28:25.330Z,1.68
2023-03-27T06:30:57.572Z,1.71
2023-03-27T06:33:29.635Z,1.73
2023-03-27T06:36:01.185Z,1.75
2023-03-27T06:38:32.976Z,1.77
2023-03-27T06:41:04.461Z,1.81
2023-03-27T06:43:34.747Z,1.84
2023-03-27T06:46:06.901Z,1.88
2023-03-27T06:48:37.752Z,1.92
2023-03-27T06:51:08.547Z,1.95
2023-03-27T06:53:38.829Z,1.98
2023-03-27T06:56:10.488Z,2.00
2023-03-27T06:58:41.048Z,2.03
2023-03-27T07:01:11.447Z,2.06
2023-03-27T07:03:42.128Z,2.08
2023-03-27T07:06:12.578Z,2.12
2023-03-27T07:08:42.938Z,2.16
2023-03-27T07:11:13.931Z,2.19
2023-03-27T07:13:44.462Z,2.24
2023-03-27T07:16:14.822Z,2.28
2023-03-27T07:18:46.016Z,2.31
2023-03-27T07:21:16.507Z,2.37
2023-03-27T07:23:46.788Z,2.43
2023-03-27T07:26:17.139Z,2.50
2023-03-27T07:28:47.682Z,2.59
2023-03-27T07:33:52.162Z,2.79
2023-03-27T07:36:23.079Z,2.87
2023-03-27T07:38:53.378Z,3.00
2023-03-27T07:41:24.041Z,3.13
2023-03-27T07:43:54.693Z,3.26
2023-03-27T07:46:25.720Z,3.34
2023-03-27T07:48:56.758Z,3.39
2023-03-27T07:51:27.422Z,3.43
2023-03-27T07:54:01.309Z,3.45
2023-03-27T07:56:33.398Z,3.46
2023-03-27T07:59:04.001Z,3.48
2023-03-27T08:01:34.447Z,3.47
2023-03-27T08:04:05.678Z,3.43
2023-03-27T08:06:36.230Z,3.42
2023-03-27T08:09:07.050Z,3.43
2023-03-27T08:11:38.375Z,3.46
2023-03-27T08:14:09.871Z,3.49
2023-03-27T08:16:40.263Z,3.55
2023-03-27T08:19:12.316Z,3.59
2023-03-27T08:21:43.065Z,3.62
2023-03-27T08:24:13.709Z,3.63
2023-03-27T08:26:45.557Z,3.65
2023-03-27T08:29:16.481Z,3.67
2023-03-27T08:31:47.145Z,3.72
2023-03-27T08:34:18.159Z,3.77
2023-03-27T08:36:48.891Z,3.82
2023-03-27T08:39:22.827Z,3.90
2023-03-27T08:41:56.129Z,3.96
2023-03-27T08:44:29.098Z,4.00
2023-03-27T08:47:04.518Z,4.05
2023-03-27T08:49:41.186Z,4.11
2023-03-27T08:52:15.681Z,4.18
2023-03-27T08:54:49.365Z,4.30
2023-03-27T08:57:22.529Z,4.43
2023-03-27T08:59:56.717Z,4.54
2023-03-27T09:02:38.490Z,4.62
2023-03-27T09:05:17.978Z,4.72
2023-03-27T09:07:57.685Z,4.80
2023-03-27T09:10:36.811Z,4.82
2023-03-27T09:13:15.354Z,4.78
2023-03-27T09:15:52.893Z,4.76
2023-03-27T09:18:28.876Z,4.82
2023-03-27T09:21:04.863Z,4.94
2023-03-27T09:23:42.563Z,5.00
2023-03-27T09:26:16.469Z,5.00
2023-03-27T09:28:51.351Z,5.01
2023-03-27T09:31:27.733Z,5.06
2023-03-27T09:34:02.053Z,5.12
2023-03-27T09:36:32.614Z,5.22
2023-03-27T09:39:07.811Z,5.35
2023-03-27T09:41:43.845Z,5.50
2023-03-27T09:44:17.961Z,5.61
2023-03-27T09:46:52.771Z,5.71
2023-03-27T09:49:23.409Z,5.80
2023-03-27T09:51:55.359Z,5.81
2023-03-27T09:54:28.760Z,5.78
2023-03-27T09:57:05.566Z,5.78
2023-03-27T09:59:38.769Z,5.88
2023-03-27T10:02:22.057Z,6.02
2023-03-27T10:05:04.168Z,6.11
2023-03-27T10:07:34.574Z,6.09
2023-03-27T10:10:11.974Z,6.01
2023-03-27T10:12:43.160Z,5.93
2023-03-27T10:15:31.812Z,5.78
2023-03-27T10:18:06.656Z,5.29
2023-03-27T10:20:37.515Z,4.74
2023-03-27T10:23:24.678Z,4.37
2023-03-27T10:25:59.875Z,4.11
2023-03-27T10:28:35.127Z,4.02
2023-03-27T10:31:08.341Z,4.04
2023-03-27T10:33:41.274Z,4.06
2023-03-27T10:36:13.488Z,4.08
2023-03-27T10:38:45.007Z,4.10
2023-03-27T10:41:28.537Z,4.13
2023-03-27T10:44:00.741Z,4.20
2023-03-27T10:46:32.046Z,4.23
2023-03-27T10:49:12.117Z,4.27
2023-03-27T10:51:50.045Z,4.34
2023-03-27T10:54:34.553Z,4.43
2023-03-27T10:57:11.125Z,4.55
2023-03-27T10:59:46.510Z,4.65
2023-03-27T11:02:21.543Z,4.72
2023-03-27T11:04:56.771Z,4.79
2023-03-27T11:07:33.816Z,4.85
2023-03-27T11:10:13.213Z,4.94
2023-03-27T11:12:49.334Z,5.09
2023-03-27T11:15:24.363Z,5.18
2023-03-27T11:18:00.749Z,5.22
2023-03-27T11:20:37.005Z,5.20
2023-03-27T11:23:13.862Z,5.16
2023-03-27T11:25:48.234Z,5.08
2023-03-27T11:28:26.807Z,4.87
2023-03-27T11:31:12.337Z,4.28
2023-03-27T11:33:48.796Z,3.55
2023-03-27T11:36:35.614Z,2.99
2023-03-27T11:39:15.674Z,2.54
2023-03-27T11:41:52.821Z,2.23
2023-03-27T11:44:24.689Z,2.04
2023-03-27T11:47:19.690Z,1.89
2023-03-27T11:50:07.957Z,1.81
2023-03-27T11:52:47.687Z,1.83
2023-03-27T11:55:32.651Z,1.90
2023-03-27T11:58:19.042Z,2.00
2023-03-27T12:00:56.950Z,2.09
2023-03-27T12:03:56.961Z,2.18
2023-03-27T12:06:35.577Z,2.31
2023-03-27T12:09:35.817Z,2.43
2023-03-27T12:12:28.127Z,2.60
2023-03-27T12:15:09.500Z,2.76
2023-03-27T12:18:01.174Z,2.90
2023-03-27T12:20:52.786Z,3.06
2023-03-27T12:23:41.505Z,3.20
2023-03-27T12:26:33.336Z,3.36
2023-03-27T12:29:23.242Z,3.50
2023-03-27T12:32:07.638Z,3.64
2023-03-27T12:34:59.051Z,3.78
2023-03-27T12:37:34.589Z,3.89
2023-03-27T12:40:27.189Z,4.01
2023-03-27T12:43:07.690Z,4.16
2023-03-27T12:45:47.478Z,4.31
2023-03-27T12:48:22.716Z,4.46
2023-03-27T12:51:01.226Z,4.54
2023-03-27T12:53:55.045Z,4.55
2023-03-27T12:56:32.179Z,4.54
2023-03-27T12:59:15.209Z,4.34
2023-03-27T13:02:10.976Z,3.97
2023-03-27T13:05:00.175Z,3.54
2023-03-27T13:07:39.288Z,3.09
2023-03-27T13:10:34.291Z,2.57
2023-03-27T13:13:32.561Z,2.11
2023-03-27T13:16:20.312Z,1.77
2023-03-27T13:19:07.480Z,1.57
2023-03-27T13:21:47.214Z,1.47
2023-03-27T13:24:32.144Z,1.41
2023-03-27T13:27:21.578Z,1.33
2023-03-27T13:29:53.673Z,1.24
2023-03-27T13:32:37.643Z,1.22
2023-03-27T13:35:33.769Z,1.24
2023-03-27T13:38:04.373Z,1.31
2023-03-27T13:40:38.574Z,1.38
2023-03-27T13:43:17.939Z,1.44
2023-03-27T13:45:52.026Z,1.48
2023-03-27T13:48:42.159Z,1.49
2023-03-27T13:51:29.426Z,1.54
2023-03-27T13:54:30.597Z,1.65
2023-03-27T13:57:15.603Z,1.78
2023-03-27T13:59:59.821Z,1.92
2023-03-27T14:03:01.285Z,2.07
2023-03-27T14:06:01.096Z,2.25
2023-03-27T14:08:42.758Z,2.45
2023-03-27T14:11:46.778Z,2.67
2023-03-27T14:14:37.143Z,2.95
2023-03-27T14:17:33.732Z,3.22
2023-03-27T14:20:22.483Z,3.55
2023-03-27T14:22:57.801Z,3.84
2023-03-27T14:25:34.001Z,4.09
2023-03-27T14:28:08.834Z,4.25
2023-03-27T14:30:47.731Z,4.11
2023-03-27T14:33:20.468Z,3.50
2023-03-27T14:35:56.436Z,2.99
2023-03-27T14:38:30.769Z,2.60
2023-03-27T14:41:02.744Z,2.34
2023-03-27T14:43:33.780Z,2.15
2023-03-27T14:46:07.074Z,2.01
2023-03-27T14:48:39.806Z,1.89
2023-03-27T14:51:15.096Z,1.80
2023-03-27T14:53:49.629Z,1.79
2023-03-27T14:56:27.611Z,1.81
2023-03-27T14:58:58.849Z,1.85
2023-03-27T15:01:31.906Z,1.92
2023-03-27T15:04:03.987Z,1.97
2023-03-27T15:06:36.751Z,2.03
2023-03-27T15:09:14.486Z,2.11
2023-03-27T15:11:50.573Z,2.17
2023-03-27T15:14:27.087Z,2.26
2023-03-27T15:17:01.350Z,2.35
2023-03-27T15:19:38.948Z,2.50
2023-03-27T15:22:16.759Z,2.66
2023-03-27T15:24:53.121Z,2.72
2023-03-27T15:27:28.725Z,2.75
2023-03-27T15:30:03.699Z,2.72
2023-03-27T15:32:42.377Z,2.65
2023-03-27T15:35:17.962Z,2.56
2023-03-27T15:37:49.006Z,2.56
2023-03-27T15:40:36.587Z,2.59
2023-03-27T15:43:20.985Z,2.63
2023-03-27T15:46:12.795Z,2.66
2023-03-27T15:48:45.514Z,2.69
2023-03-27T15:51:30.596Z,2.71
2023-03-27T15:54:21.270Z,2.72
2023-03-27T15:56:52.537Z,2.71
2023-03-27T15:59:52.211Z,2.73
2023-03-27T16:02:26.538Z,2.72
2023-03-27T16:04:58.823Z,2.69
2023-03-27T16:07:34.041Z,2.67
2023-03-27T16:10:07.669Z,2.65
2023-03-27T16:12:52.910Z,2.65
2023-03-27T16:15:36.532Z,2.63
2023-03-27T16:18:21.940Z,2.62
2023-03-27T16:20:52.557Z,2.60
2023-03-27T16:23:22.959Z,2.59
2023-03-27T16:25:53.390Z,2.56
2023-03-27T16:28:29.543Z,2.53
2023-03-27T16:30:59.978Z,2.47
2023-03-27T16:33:30.575Z,2.45
2023-03-27T16:36:01.572Z,2.41
2023-03-27T16:38:34.354Z,2.39
2023-03-27T16:41:05.101Z,2.37
2023-03-27T16:43:35.453Z,2.35
2023-03-27T16:46:06.532Z,2.36
2023-03-27T16:48:36.895Z,2.38
2023-03-27T16:51:08.249Z,2.42
2023-03-27T16:53:38.628Z,2.45
2023-03-27T16:56:10.136Z,2.50
2023-03-27T16:58:41.039Z,2.55
2023-03-27T17:01:12.121Z,2.59
2023-03-27T17:03:42.945Z,2.64
2023-03-27T17:06:15.194Z,2.66
2023-03-27T17:08:46.282Z,2.68
2023-03-27T17:11:17.192Z,2.69
2023-03-27T17:13:48.938Z,2.67
2023-03-27T17:16:19.331Z,2.67
2023-03-27T17:18:49.927Z,2.65
2023-03-27T17:21:20.751Z,2.63
2023-03-27T17:23:52.811Z,2.63
2023-03-27T17:26:28.240Z,2.65
2023-03-27T17:28:59.671Z,2.69
2023-03-27T17:31:30.995Z,2.71
2023-03-27T17:34:01.656Z,2.70
2023-03-27T17:36:42.820Z,2.68
2023-03-27T17:39:16.070Z,2.65
2023-03-27T17:41:46.454Z,2.64
2023-03-27T17:44:17.156Z,2.60
2023-03-27T17:46:47.956Z,2.57
2023-03-27T17:49:18.521Z,2.53
2023-03-27T17:51:49.295Z,2.49
2023-03-27T17:54:20.164Z,2.45
2023-03-27T17:56:51.034Z,2.42
2023-03-27T17:59:21.901Z,2.39
2023-03-27T18:01:53.177Z,2.36
2023-03-27T18:04:24.156Z,2.32
2023-03-27T18:06:55.496Z,2.30
2023-03-27T18:09:27.064Z,2.28
2023-03-27T18:11:57.570Z,2.25
2023-03-27T18:14:28.132Z,2.21
2023-03-27T18:16:59.200Z,2.19
2023-03-27T18:19:29.782Z,2.16
2023-03-27T18:22:00.248Z,2.14
2023-03-27T18:24:31.670Z,2.11
2023-03-27T18:27:02.546Z,2.09
2023-03-27T18:29:33.840Z,2.06
2023-03-27T18:32:05.034Z,2.03
2023-03-27T18:34:35.402Z,2.01
2023-03-27T18:37:05.861Z,2.00
2023-03-27T18:39:37.570Z,1.98
2023-03-27T18:42:08.634Z,1.97
2023-03-27T18:44:41.362Z,1.96
2023-03-27T18:47:12.088Z,1.95
2023-03-27T18:49:44.264Z,1.95
2023-03-27T18:52:14.791Z,1.94
2023-03-27T18:54:45.525Z,1.93
2023-03-27T18:57:19.964Z,1.93
2023-03-27T18:59:51.400Z,1.92
2023-03-27T19:02:22.044Z,1.91
2023-03-27T19:04:53.184Z,1.88
2023-03-27T19:07:23.884Z,1.87
2023-03-27T19:09:54.392Z,1.87
2023-03-27T19:12:25.168Z,1.85
2023-03-27T19:15:00.464Z,1.82
2023-03-27T19:17:34.700Z,1.79
2023-03-27T19:20:05.375Z,1.75
2023-03-27T19:22:35.818Z,1.73
2023-03-27T19:25:06.846Z,1.71
2023-03-27T19:27:38.946Z,1.68
2023-03-27T19:30:13.068Z,1.67
2023-03-27T19:32:43.887Z,1.65
2023-03-27T19:35:14.458Z,1.64
2023-03-27T19:37:44.926Z,1.64
2023-03-27T19:40:16.666Z,1.64
2023-03-27T19:42:48.152Z,1.65
2023-03-27T19:45:19.058Z,1.66
2023-03-27T19:47:49.570Z,1.65
2023-03-27T19:50:20.738Z,1.64
2023-03-27T19:53:01.523Z,1.61
2023-03-27T19:55:39.111Z,1.58
2023-03-27T19:58:09.702Z,1.56
2023-03-27T20:00:40.514Z,1.54
2023-03-27T20:03:12.854Z,1.53
2023-03-27T20:05:47.034Z,1.50
2023-03-27T20:08:17.825Z,1.50
2023-03-27T20:10:48.889Z,1.51
2023-03-27T20:13:20.257Z,1.52
2023-03-27T20:15:52.834Z,1.55
2023-03-27T20:18:23.350Z,1.59
2023-03-27T20:20:55.172Z,1.63
2023-03-27T20:23:32.504Z,1.66
2023-03-27T20:26:03.281Z,1.68
2023-03-27T20:28:33.881Z,1.71
2023-03-27T20:31:07.380Z,1.72
2023-03-27T20:33:40.826Z,1.74
2023-03-27T20:36:11.959Z,1.75
2023-03-27T20:38:42.380Z,1.76
2023-03-27T20:41:15.793Z,1.77
2023-03-27T20:43:47.324Z,1.78
2023-03-27T20:46:18.134Z,1.78
2023-03-27T20:48:54.127Z,1.79
2023-03-27T20:51:25.294Z,1.80
2023-03-27T20:53:57.392Z,1.80
2023-03-27T20:56:27.878Z,1.81
2023-03-27T20:58:58.234Z,1.81
2023-03-27T21:01:29.065Z,1.83
2023-03-27T21:04:02.105Z,1.84
2023-03-27T21:06:32.588Z,1.86
2023-03-27T21:09:04.513Z,1.86
2023-03-27T21:11:35.306Z,1.87
2023-03-27T21:14:06.313Z,1.87
2023-03-27T21:16:37.594Z,1.86
2023-03-27T21:19:08.060Z,1.87
2023-03-27T21:21:39.362Z,1.88
2023-03-27T21:24:09.881Z,1.90
2023-03-27T21:26:41.390Z,1.91
2023-03-27T21:29:12.570Z,1.92
2023-03-27T21:31:43.407Z,1.93
2023-03-27T21:34:13.784Z,1.93
2023-03-27T21:36:44.533Z,1.93
2023-03-27T21:39:14.850Z,1.93
2023-03-27T21:41:45.909Z,1.93
2023-03-27T21:44:16.595Z,1.93
2023-03-27T21:46:47.633Z,1.89
2023-03-27T21:49:17.984Z,1.87
2023-03-27T21:51:49.162Z,1.84
2023-03-27T21:54:19.471Z,1.84
2023-03-27T21:56:50.264Z,1.83
2023-03-27T21:59:20.794Z,1.87
2023-03-27T22:01:52.200Z,1.93
2023-03-27T22:04:23.260Z,1.98
2023-03-27T22:06:53.945Z,2.01
2023-03-27T22:09:24.348Z,2.07
2023-03-27T22:11:56.823Z,2.10
2023-03-27T22:14:27.153Z,2.13
2023-03-27T22:16:57.510Z,2.12
2023-03-27T22:19:28.217Z,2.15
2023-03-27T22:21:58.541Z,2.17
2023-03-27T22:24:28.898Z,2.16
2023-03-27T22:26:59.199Z,2.16
2023-03-27T22:29:29.501Z,2.16
2023-03-27T22:32:00.252Z,2.18
2023-03-27T22:34:30.963Z,2.18
2023-03-27T22:37:02.627Z,2.19
2023-03-27T22:39:33.117Z,2.19
2023-03-27T22:42:04.407Z,2.19
2023-03-27T22:44:35.312Z,2.16
2023-03-27T22:47:05.732Z,2.11
2023-03-27T22:49:36.714Z,2.04
2023-03-27T22:52:07.330Z,1.97
2023-03-27T22:54:38.237Z,1.92
2023-03-27T22:57:08.905Z,1.86
2023-03-27T22:59:39.248Z,1.84
2023-03-27T23:02:09.857Z,1.81
2023-03-27T23:04:40.285Z,1.77
2023-03-27T23:07:10.695Z,1.72
2023-03-27T23:09:41.051Z,1.69
2023-03-27T23:12:11.655Z,1.64
2023-03-27T23:14:42.191Z,1.60
2023-03-27T23:17:12.605Z,1.57
2023-03-27T23:19:43.206Z,1.54
2023-03-27T23:22:13.620Z,1.56
2023-03-27T23:24:43.969Z,1.59
2023-03-27T23:27:14.930Z,1.62
2023-03-27T23:29:48.051Z,1.62
2023-03-27T23:32:18.331Z,1.60
2023-03-27T23:34:48.624Z,1.59
2023-03-27T23:37:18.910Z,1.60
2023-03-27T23:39:49.368Z,1.61
2023-03-27T23:42:19.706Z,1.62
2023-03-27T23:44:50.388Z,1.61
2023-03-27T23:47:20.709Z,1.61
2023-03-27T23:49:51.151Z,1.60
2023-03-27T23:52:21.746Z,1.61
2023-03-27T23:54:52.361Z,1.61
2023-03-27T23:57:22.754Z,1.58
2023-03-27T23:59:53.271Z,1.54
